createdAt,value
2023-02-11T00:00:50.647Z,102339.97
2023-02-11T00:03:22.842Z,102375.47
2023-02-11T00:05:59.632Z,102369.97
2023-02-11T00:08:28.409Z,102335.72
2023-02-11T00:10:58.575Z,102349.94
2023-02-11T00:13:27.460Z,102349.94
2023-02-11T00:15:57.490Z,102362.09
2023-02-11T00:18:27.900Z,102346.56
2023-02-11T00:20:59.557Z,102364.03
2023-02-11T00:23:27.592Z,102357.38
2023-02-11T00:25:57.074Z,102364.31
2023-02-11T00:28:25.278Z,102336.84
2023-02-11T00:30:57.881Z,102357.81
2023-02-11T00:33:26.655Z,102347.25
2023-02-11T00:35:57.331Z,102347.13
2023-02-11T00:38:25.818Z,102309.44
2023-02-11T00:40:54.946Z,102346.53
2023-02-11T00:43:24.663Z,102330.53
2023-02-11T00:45:53.411Z,102340.31
2023-02-11T00:48:22.857Z,102335.53
2023-02-11T00:50:51.308Z,102336.28
2023-02-11T00:53:25.125Z,102339.44
2023-02-11T00:55:54.947Z,102329.81
2023-02-11T00:58:26.335Z,102313.34
2023-02-11T01:00:58.617Z,102326.53
2023-02-11T01:03:30.082Z,102322.25
2023-02-11T01:05:59.608Z,102328.94
2023-02-11T01:08:28.886Z,102327.97
2023-02-11T01:11:00.651Z,102324.06
2023-02-11T01:13:30.876Z,102331.28
2023-02-11T01:15:59.513Z,102308.59
2023-02-11T01:18:29.171Z,102315.66
2023-02-11T01:20:59.067Z,102318.59
2023-02-11T01:23:29.988Z,102324.44
2023-02-11T01:26:00.908Z,102314.28
2023-02-11T01:28:32.060Z,102314.06
2023-02-11T01:31:01.440Z,102300.53
2023-02-11T01:33:31.441Z,102291.72
2023-02-11T01:36:05.958Z,102307.91
2023-02-11T01:38:36.000Z,102311.72
2023-02-11T01:41:08.369Z,102281.63
2023-02-11T01:43:39.147Z,102276.50
2023-02-11T01:46:34.129Z,102293.44
2023-02-11T01:49:07.163Z,102287.22
2023-02-11T01:51:40.713Z,102274.78
2023-02-11T01:54:30.858Z,102271.75
2023-02-11T01:57:21.569Z,102245.53
2023-02-11T01:59:57.405Z,102283.69
2023-02-11T02:02:33.663Z,102278.47
2023-02-11T02:05:11.316Z,102273.22
2023-02-11T02:07:47.406Z,102242.63
2023-02-11T02:10:22.154Z,102269.34
2023-02-11T02:12:53.155Z,102258.84
2023-02-11T02:15:27.451Z,102249.69
2023-02-11T02:18:11.819Z,102226.91
2023-02-11T02:21:08.490Z,102226.66
2023-02-11T02:23:58.946Z,102249.47
2023-02-11T02:27:07.083Z,102242.00
2023-02-11T02:30:01.755Z,102242.41
2023-02-11T02:32:57.939Z,102242.97
2023-02-11T02:35:36.021Z,102221.56
2023-02-11T02:38:12.230Z,102243.97
2023-02-11T02:40:47.955Z,102258.00
2023-02-11T02:43:17.905Z,102248.00
2023-02-11T02:45:47.416Z,102268.38
2023-02-11T02:48:33.646Z,102250.78
2023-02-11T02:51:12.279Z,102255.53
2023-02-11T02:53:54.290Z,102201.19
2023-02-11T02:56:33.503Z,102254.06
2023-02-11T02:59:20.415Z,102255.19
2023-02-11T03:01:59.435Z,102252.63
2023-02-11T03:04:35.288Z,102249.09
2023-02-11T03:07:13.672Z,102255.31
2023-02-11T03:09:46.674Z,102259.19
2023-02-11T03:12:16.820Z,102240.56
2023-02-11T03:14:46.842Z,102226.91
2023-02-11T03:17:17.995Z,102248.09
2023-02-11T03:19:52.225Z,102223.84
2023-02-11T03:22:26.924Z,102232.63
2023-02-11T03:24:58.516Z,102246.91
2023-02-11T03:27:31.966Z,102225.09
2023-02-11T03:30:07.212Z,102225.31
2023-02-11T03:32:43.981Z,102219.00
2023-02-11T03:35:21.583Z,102210.09
2023-02-11T03:37:56.284Z,102207.16
2023-02-11T03:40:29.727Z,102194.00
2023-02-11T03:43:01.159Z,102200.06
2023-02-11T03:45:31.655Z,102184.34
2023-02-11T03:48:03.870Z,102169.47
2023-02-11T03:50:37.141Z,102136.19
2023-02-11T03:53:06.702Z,102157.75
2023-02-11T03:55:38.865Z,102136.47
2023-02-11T03:58:08.670Z,102157.00
2023-02-11T04:00:41.169Z,102130.38
2023-02-11T04:03:19.337Z,102157.28
2023-02-11T04:05:54.279Z,102174.19
2023-02-11T04:08:22.226Z,102153.84
2023-02-11T04:10:50.714Z,102151.09
2023-02-11T04:13:18.936Z,102190.50
2023-02-11T04:15:49.109Z,102192.84
2023-02-11T04:18:18.282Z,102149.00
2023-02-11T04:20:50.371Z,102195.75
2023-02-11T04:23:21.493Z,102175.31
2023-02-11T04:25:50.799Z,102192.06
2023-02-11T04:28:19.811Z,102214.63
2023-02-11T04:30:52.197Z,102197.22
2023-02-11T04:33:20.525Z,102207.66
2023-02-11T04:35:52.312Z,102209.63
2023-02-11T04:38:21.123Z,102194.88
2023-02-11T04:40:50.033Z,102197.53
2023-02-11T04:43:17.940Z,102194.59
2023-02-11T04:45:49.340Z,102192.19
2023-02-11T04:48:17.745Z,102166.22
2023-02-11T04:50:46.065Z,102174.91
2023-02-11T04:53:17.829Z,102148.63
2023-02-11T04:55:46.171Z,102175.97
2023-02-11T04:58:14.259Z,102180.25
2023-02-11T05:00:44.144Z,102151.97
2023-02-11T05:03:14.039Z,102169.25
2023-02-11T05:05:43.684Z,102166.00
2023-02-11T05:08:15.798Z,102157.53
2023-02-11T05:10:50.990Z,102159.00
2023-02-11T05:13:19.700Z,102157.81
2023-02-11T05:15:50.650Z,102159.13
2023-02-11T05:18:19.137Z,102154.00
2023-02-11T05:20:48.892Z,102155.47
2023-02-11T05:23:18.067Z,102168.91
2023-02-11T05:25:49.884Z,102176.84
2023-02-11T05:28:19.717Z,102176.28
2023-02-11T05:30:47.900Z,102171.56
2023-02-11T05:33:17.187Z,102151.41
2023-02-11T05:35:47.437Z,102170.22
2023-02-11T05:38:18.416Z,102171.03
2023-02-11T05:40:48.313Z,102125.91
2023-02-11T05:43:18.147Z,102162.31
2023-02-11T05:45:46.837Z,102172.44
2023-02-11T05:48:15.605Z,102180.81
2023-02-11T05:50:45.249Z,102189.78
2023-02-11T05:53:15.782Z,102183.84
2023-02-11T05:55:51.215Z,102175.31
2023-02-11T05:58:25.575Z,102169.72
2023-02-11T06:00:53.866Z,102179.31
2023-02-11T06:03:24.395Z,102169.16
2023-02-11T06:05:53.151Z,102148.94
2023-02-11T06:08:21.477Z,102150.44
2023-02-11T06:10:50.670Z,102167.72
2023-02-11T06:13:25.862Z,102171.38
2023-02-11T06:15:58.479Z,102133.19
2023-02-11T06:18:27.488Z,102178.16
2023-02-11T06:20:56.033Z,102185.31
2023-02-11T06:23:29.124Z,102174.91
2023-02-11T06:26:04.520Z,102163.22
2023-02-11T06:28:36.550Z,102163.53
2023-02-11T06:31:08.183Z,102140.03
2023-02-11T06:33:37.087Z,102173.72
2023-02-11T06:36:14.246Z,102170.75
2023-02-11T06:38:44.774Z,102154.00
2023-02-11T06:41:14.110Z,102163.78
2023-02-11T06:43:46.058Z,102164.69
2023-02-11T06:46:32.833Z,102173.44
2023-02-11T06:49:01.852Z,102171.91
2023-02-11T06:51:32.100Z,102113.81
2023-02-11T06:54:01.555Z,102167.88
2023-02-11T06:56:32.664Z,102153.97
2023-02-11T06:59:03.692Z,102135.94
2023-02-11T07:01:34.732Z,102116.69
2023-02-11T07:04:03.671Z,102150.03
2023-02-11T07:06:35.262Z,102162.03
2023-02-11T07:09:05.153Z,102144.41
2023-02-11T07:11:35.086Z,102129.41
2023-02-11T07:14:17.564Z,102145.06
2023-02-11T07:16:48.845Z,102153.22
2023-02-11T07:19:20.114Z,102120.72
2023-02-11T07:21:49.673Z,102168.75
2023-02-11T07:24:20.960Z,102170.31
2023-02-11T07:26:49.904Z,102164.56
2023-02-11T07:29:25.944Z,102149.69
2023-02-11T07:31:56.999Z,102161.97
2023-02-11T07:34:27.235Z,102137.72
2023-02-11T07:36:59.333Z,102162.78
2023-02-11T07:39:29.456Z,102156.13
2023-02-11T07:42:01.508Z,102151.25
2023-02-11T07:44:33.552Z,102165.53
2023-02-11T07:47:03.086Z,102181.22
2023-02-11T07:49:45.972Z,102172.06
2023-02-11T07:52:19.214Z,102175.09
2023-02-11T07:54:47.471Z,102178.75
2023-02-11T07:57:17.034Z,102145.94
2023-02-11T07:59:52.446Z,102191.72
2023-02-11T08:02:30.693Z,102194.69
2023-02-11T08:04:59.311Z,102213.28
2023-02-11T08:07:29.699Z,102202.88
2023-02-11T08:10:17.783Z,102186.47
2023-02-11T08:12:47.873Z,102205.53
2023-02-11T08:15:21.456Z,102205.88
2023-02-11T08:17:53.257Z,102210.81
2023-02-11T08:20:21.962Z,102188.69
2023-02-11T08:22:51.323Z,102203.78
2023-02-11T08:28:10.495Z,102217.16
2023-02-11T08:30:57.238Z,102226.81
2023-02-11T08:33:27.599Z,102208.50
2023-02-11T08:35:56.164Z,102245.47
2023-02-11T08:38:27.586Z,102247.63
2023-02-11T08:40:55.798Z,102252.75
2023-02-11T08:43:24.320Z,102248.00
2023-02-11T08:45:57.062Z,102249.31
2023-02-11T08:48:25.098Z,102243.28
2023-02-11T08:50:56.939Z,102220.06
2023-02-11T08:53:29.170Z,102238.03
2023-02-11T08:55:58.365Z,102213.41
2023-02-11T08:58:26.546Z,102237.75
2023-02-11T09:01:02.052Z,102247.94
2023-02-11T09:03:32.748Z,102244.41
2023-02-11T09:06:09.316Z,102253.50
2023-02-11T09:08:46.323Z,102245.63
2023-02-11T09:11:19.689Z,102254.44
2023-02-11T09:14:02.866Z,102247.13
2023-02-11T09:16:49.359Z,102256.63
2023-02-11T09:19:18.628Z,102260.69
2023-02-11T09:21:48.809Z,102243.75
2023-02-11T09:24:20.521Z,102259.91
2023-02-11T09:26:49.873Z,102258.97
2023-02-11T09:29:21.891Z,102255.59
2023-02-11T09:31:53.821Z,102255.69
2023-02-11T09:34:22.275Z,102259.94
2023-02-11T09:36:52.292Z,102271.09
2023-02-11T09:39:22.648Z,102273.41
2023-02-11T09:42:14.873Z,102275.13
2023-02-11T09:44:49.568Z,102268.03
2023-02-11T09:47:34.060Z,102274.72
2023-02-11T09:50:09.155Z,102254.84
2023-02-11T09:52:48.517Z,102259.38
2023-02-11T09:55:28.425Z,102243.63
2023-02-11T09:57:58.403Z,102261.66
2023-02-11T10:00:38.816Z,102259.81
2023-02-11T10:03:42.764Z,102242.63
2023-02-11T10:06:41.544Z,102261.34
2023-02-11T10:09:39.823Z,102244.22
2023-02-11T10:12:50.821Z,102264.31
2023-02-11T10:15:38.833Z,102259.22
2023-02-11T10:18:33.885Z,102251.25
2023-02-11T10:21:26.015Z,102247.22
2023-02-11T10:24:04.806Z,102230.50
2023-02-11T10:32:46.192Z,102236.13
2023-02-11T10:38:16.561Z,102227.06
2023-02-11T10:40:51.730Z,102270.91
2023-02-11T10:43:27.836Z,102268.00
2023-02-11T10:46:04.094Z,102249.16
2023-02-11T10:49:00.028Z,102245.22
2023-02-11T10:51:47.503Z,102264.88
2023-02-11T10:54:23.648Z,102267.00
2023-02-11T10:59:48.305Z,102247.56
2023-02-11T11:02:34.726Z,102261.84
2023-02-11T11:05:05.728Z,102248.00
2023-02-11T11:07:36.576Z,102250.69
2023-02-11T11:10:09.709Z,102253.13
2023-02-11T11:12:50.839Z,102246.47
2023-02-11T11:15:26.636Z,102248.38
2023-02-11T11:18:21.326Z,102254.31
2023-02-11T11:20:59.931Z,102253.72
2023-02-11T11:23:30.776Z,102229.16
2023-02-11T11:26:23.376Z,102203.31
2023-02-11T11:28:57.882Z,102252.50
2023-02-11T11:31:47.393Z,102229.47
2023-02-11T11:34:25.957Z,102230.66
2023-02-11T11:36:56.735Z,102249.66
2023-02-11T11:39:28.577Z,102192.72
2023-02-11T11:42:01.328Z,102192.66
2023-02-11T11:44:36.832Z,102224.72
2023-02-11T11:47:42.783Z,102236.91
2023-02-11T11:50:24.005Z,102214.22
2023-02-11T11:53:13.365Z,102200.22
2023-02-11T11:55:53.694Z,102232.13
2023-02-11T11:58:24.344Z,102228.13
2023-02-11T12:01:08.231Z,102223.81
2023-02-11T12:04:05.773Z,102224.19
2023-02-11T12:06:42.637Z,102206.91
2023-02-11T12:09:28.216Z,102190.91
2023-02-11T12:12:19.209Z,102180.69
2023-02-11T12:15:02.842Z,102194.91
2023-02-11T12:17:54.872Z,102208.16
2023-02-11T12:20:35.268Z,102207.50
2023-02-11T12:23:45.082Z,102212.97
2023-02-11T12:26:21.725Z,102217.63
2023-02-11T12:29:34.124Z,102215.19
2023-02-11T12:32:36.885Z,102195.38
2023-02-11T12:35:45.132Z,102220.69
2023-02-11T12:38:34.638Z,102223.84
2023-02-11T12:41:45.748Z,102221.94
2023-02-11T12:44:32.362Z,102218.13
2023-02-11T12:47:14.090Z,102187.56
2023-02-11T12:50:17.967Z,102213.31
2023-02-11T12:53:16.025Z,102212.72
2023-02-11T12:55:51.724Z,102199.25
2023-02-11T12:58:42.814Z,102198.81
2023-02-11T13:01:35.680Z,102172.22
2023-02-11T13:04:12.861Z,102167.78
2023-02-11T13:06:50.362Z,102200.75
2023-02-11T13:09:27.657Z,102179.38
2023-02-11T13:12:21.017Z,102189.06
2023-02-11T13:14:53.528Z,102177.88
2023-02-11T13:17:33.446Z,102132.50
2023-02-11T13:20:18.028Z,102190.00
2023-02-11T13:22:57.492Z,102185.28
2023-02-11T13:25:33.981Z,102191.59
2023-02-11T13:28:29.983Z,102167.69
2023-02-11T13:31:04.387Z,102166.16
2023-02-11T13:33:35.994Z,102179.63
2023-02-11T13:36:43.792Z,102171.22
2023-02-11T13:39:29.821Z,102172.72
2023-02-11T13:42:08.478Z,102165.38
2023-02-11T13:50:27.283Z,102156.56
2023-02-11T13:53:16.178Z,102156.09
2023-02-11T13:55:50.351Z,102151.28
2023-02-11T13:58:32.872Z,102149.88
2023-02-11T14:01:09.909Z,102141.44
2023-02-11T14:04:07.170Z,102159.34
2023-02-11T14:07:05.468Z,102164.34
2023-02-11T14:09:39.461Z,102171.97
2023-02-11T14:12:41.650Z,102144.72
2023-02-11T14:15:25.761Z,102170.50
2023-02-11T14:17:54.676Z,102154.75
2023-02-11T14:20:51.689Z,102164.53
2023-02-11T14:23:30.017Z,102160.75
2023-02-11T14:26:21.430Z,102152.06
2023-02-11T14:29:02.857Z,102185.44
2023-02-11T14:31:41.022Z,102141.41
2023-02-11T14:34:40.374Z,102193.13
2023-02-11T14:37:29.129Z,102143.25
2023-02-11T14:40:12.073Z,102188.19
2023-02-11T14:42:44.025Z,102184.66
2023-02-11T14:45:21.406Z,102165.81
2023-02-11T14:47:54.936Z,102163.28
2023-02-11T14:50:28.288Z,102200.69
2023-02-11T14:52:59.283Z,102199.06
2023-02-11T14:55:33.961Z,102155.66
2023-02-11T14:58:15.105Z,102197.56
2023-02-11T15:01:02.070Z,102192.91
2023-02-11T15:03:36.985Z,102177.72
2023-02-11T15:06:23.773Z,102173.53
2023-02-11T15:09:03.328Z,102200.94
2023-02-11T15:11:42.742Z,102195.75
2023-02-11T15:14:26.215Z,102199.13
2023-02-11T15:16:58.370Z,102170.78
2023-02-11T15:19:34.398Z,102169.78
2023-02-11T15:22:05.752Z,102203.75
2023-02-11T15:24:41.738Z,102214.69
2023-02-11T15:27:15.035Z,102198.44
2023-02-11T15:29:46.590Z,102220.13
2023-02-11T15:32:19.112Z,102201.63
2023-02-11T15:34:48.604Z,102227.25
2023-02-11T15:37:23.153Z,102213.53
2023-02-11T15:40:15.141Z,102222.53
2023-02-11T15:42:56.250Z,102232.50
2023-02-11T15:45:30.408Z,102235.13
2023-02-11T15:48:08.060Z,102239.38
2023-02-11T15:50:41.758Z,102240.91
2023-02-11T15:53:29.588Z,102247.06
2023-02-11T15:56:07.405Z,102227.41
2023-02-11T15:58:38.735Z,102199.84
2023-02-11T16:01:11.758Z,102214.31
2023-02-11T16:03:43.513Z,102240.94
2023-02-11T16:06:23.675Z,102239.59
2023-02-11T16:09:03.663Z,102231.66
2023-02-11T16:11:35.671Z,102243.59
2023-02-11T16:14:25.858Z,102247.31
2023-02-11T16:16:58.932Z,102235.31
2023-02-11T16:22:18.750Z,102213.13
2023-02-11T16:24:57.839Z,102234.97
2023-02-11T16:27:30.777Z,102212.22
2023-02-11T16:30:03.348Z,102235.31
2023-02-11T16:32:32.826Z,102233.06
2023-02-11T16:35:06.264Z,102243.44
2023-02-11T16:37:35.682Z,102243.59
2023-02-11T16:40:05.354Z,102239.88
2023-02-11T16:42:38.672Z,102219.09
2023-02-11T16:45:09.029Z,102251.19
2023-02-11T16:47:41.418Z,102251.66
2023-02-11T16:50:17.632Z,102255.47
2023-02-11T16:52:46.598Z,102251.19
2023-02-11T16:55:18.126Z,102227.00
2023-02-11T16:57:56.109Z,102257.75
2023-02-11T17:00:26.173Z,102245.06
2023-02-11T17:02:58.674Z,102257.72
2023-02-11T17:05:28.749Z,102245.91
2023-02-11T17:07:57.252Z,102261.47
2023-02-11T17:10:30.894Z,102271.69
2023-02-11T17:13:02.646Z,102259.03
2023-02-11T17:15:34.070Z,102264.78
2023-02-11T17:18:02.636Z,102222.72
2023-02-11T17:20:32.912Z,102285.16
2023-02-11T17:23:02.289Z,102285.56
2023-02-11T17:25:32.648Z,102287.28
2023-02-11T17:28:03.218Z,102273.72
2023-02-11T17:30:34.922Z,102302.31
2023-02-11T17:33:05.711Z,102282.16
2023-02-11T17:35:35.310Z,102269.16
2023-02-11T17:38:06.387Z,102294.56
2023-02-11T17:40:35.419Z,102301.13
2023-02-11T17:43:07.188Z,102300.69
2023-02-11T17:45:43.023Z,102295.47
2023-02-11T17:48:19.646Z,102293.84
2023-02-11T17:50:52.829Z,102278.88
2023-02-11T17:53:21.448Z,102291.97
2023-02-11T17:55:58.261Z,102299.31
2023-02-11T17:58:28.658Z,102260.25
2023-02-11T18:01:00.562Z,102311.16
2023-02-11T18:03:28.887Z,102305.59
2023-02-11T18:06:20.149Z,102306.34
2023-02-11T18:08:50.889Z,102302.03
2023-02-11T18:11:25.714Z,102303.56
2023-02-11T18:13:55.707Z,102295.19
2023-02-11T18:16:28.962Z,102310.06
2023-02-11T18:18:58.626Z,102308.28
2023-02-11T18:21:31.022Z,102267.41
2023-02-11T18:24:05.989Z,102297.38
2023-02-11T18:26:37.740Z,102281.88
2023-02-11T18:29:10.743Z,102302.66
2023-02-11T18:31:40.691Z,102302.44
2023-02-11T18:34:10.774Z,102297.38
2023-02-11T18:36:43.282Z,102256.69
2023-02-11T18:39:14.848Z,102300.81
2023-02-11T18:41:44.887Z,102290.59
2023-02-11T18:44:25.795Z,102305.53
2023-02-11T18:46:56.979Z,102310.91
2023-02-11T18:49:25.619Z,102272.03
2023-02-11T18:51:55.644Z,102299.63
2023-02-11T18:54:24.661Z,102304.88
2023-02-11T18:56:54.608Z,102309.28
2023-02-11T18:59:25.251Z,102269.88
2023-02-11T19:01:54.015Z,102322.75
2023-02-11T19:04:24.190Z,102311.63
2023-02-11T19:06:55.253Z,102315.47
2023-02-11T19:09:23.503Z,102327.31
2023-02-11T19:11:54.447Z,102304.84
2023-02-11T19:14:24.919Z,102322.97
2023-02-11T19:16:59.238Z,102332.66
2023-02-11T19:19:30.067Z,102333.63
2023-02-11T19:22:02.573Z,102300.38
2023-02-11T19:24:38.647Z,102343.75
2023-02-11T19:27:11.356Z,102333.75
2023-02-11T19:29:40.408Z,102322.19
2023-02-11T19:32:09.789Z,102346.00
2023-02-11T19:34:41.628Z,102348.97
2023-02-11T19:37:14.256Z,102349.88
2023-02-11T19:39:43.043Z,102305.03
2023-02-11T19:42:12.636Z,102355.09
2023-02-11T19:44:41.529Z,102345.75
2023-02-11T19:47:15.202Z,102353.16
2023-02-11T19:49:46.228Z,102352.41
2023-02-11T19:52:16.284Z,102362.50
2023-02-11T19:54:44.720Z,102308.34
2023-02-11T19:57:13.552Z,102331.56
2023-02-11T19:59:41.871Z,102360.84
2023-02-11T20:02:14.173Z,102326.34
2023-02-11T20:04:46.711Z,102357.19
2023-02-11T20:07:18.462Z,102363.94
2023-02-11T20:09:47.744Z,102327.59
2023-02-11T20:12:16.510Z,102350.50
2023-02-11T20:14:46.308Z,102347.69
2023-02-11T20:17:16.165Z,102346.31
2023-02-11T20:19:45.528Z,102343.22
2023-02-11T20:22:19.661Z,102334.66
2023-02-11T20:24:49.198Z,102339.97
2023-02-11T20:27:19.961Z,102339.53
2023-02-11T20:29:49.339Z,102358.19
2023-02-11T20:32:19.194Z,102352.16
2023-02-11T20:34:47.879Z,102346.59
2023-02-11T20:37:19.763Z,102345.31
2023-02-11T20:39:51.288Z,102354.50
2023-02-11T20:42:20.430Z,102347.50
2023-02-11T20:44:48.674Z,102320.03
2023-02-11T20:47:17.875Z,102335.25
2023-02-11T20:49:47.058Z,102350.06
2023-02-11T20:52:18.450Z,102337.47
2023-02-11T20:54:47.868Z,102348.56
2023-02-11T20:57:31.156Z,102352.34
2023-02-11T21:00:01.135Z,102335.19
2023-02-11T21:02:30.506Z,102330.00
2023-02-11T21:05:00.688Z,102344.47
2023-02-11T21:07:33.654Z,102346.22
2023-02-11T21:10:03.444Z,102355.91
2023-02-11T21:12:31.257Z,102340.66
2023-02-11T21:15:00.453Z,102365.69
2023-02-11T21:17:29.047Z,102368.41
2023-02-11T21:20:04.704Z,102375.53
2023-02-11T21:22:36.275Z,102361.44
2023-02-11T21:25:06.285Z,102368.28
2023-02-11T21:27:34.845Z,102379.50
2023-02-11T21:30:05.250Z,102358.41
2023-02-11T21:32:33.920Z,102394.13
2023-02-11T21:35:04.189Z,102401.66
2023-02-11T21:37:32.280Z,102399.44
2023-02-11T21:40:03.542Z,102396.59
2023-02-11T21:42:32.634Z,102383.22
2023-02-11T21:45:02.747Z,102403.56
2023-02-11T21:47:30.831Z,102399.69
2023-02-11T21:49:59.073Z,102405.94
2023-02-11T21:52:27.421Z,102406.25
2023-02-11T21:54:56.061Z,102416.38
2023-02-11T21:57:27.288Z,102397.44
2023-02-11T21:59:55.336Z,102411.19
2023-02-11T22:02:23.677Z,102413.13
2023-02-11T22:04:53.831Z,102404.88
2023-02-11T22:07:23.169Z,102401.78
2023-02-11T22:09:55.739Z,102398.94
2023-02-11T22:12:25.398Z,102341.91
2023-02-11T22:14:54.530Z,102387.63
2023-02-11T22:17:23.151Z,102409.50
2023-02-11T22:19:52.169Z,102401.00
2023-02-11T22:22:24.005Z,102401.00
2023-02-11T22:25:00.543Z,102396.59
2023-02-11T22:27:36.630Z,102397.16
2023-02-11T22:30:07.825Z,102387.63
2023-02-11T22:32:38.834Z,102389.84
2023-02-11T22:35:08.152Z,102385.72
2023-02-11T22:37:37.818Z,102400.78
2023-02-11T22:40:09.497Z,102404.72
2023-02-11T22:42:39.373Z,102408.59
2023-02-11T22:45:14.817Z,102397.53
2023-02-11T22:47:48.452Z,102366.41
2023-02-11T22:50:17.273Z,102412.69
2023-02-11T22:52:45.286Z,102411.81
2023-02-11T22:55:13.310Z,102401.13
2023-02-11T22:57:43.035Z,102401.09
2023-02-11T23:00:12.559Z,102408.25
2023-02-11T23:02:42.319Z,102415.47
2023-02-11T23:05:13.542Z,102416.38
2023-02-11T23:07:42.237Z,102420.63
2023-02-11T23:10:13.544Z,102423.47
2023-02-11T23:12:44.601Z,102412.69
2023-02-11T23:15:14.608Z,102433.44
2023-02-11T23:17:42.946Z,102431.97
2023-02-11T23:20:11.982Z,102432.13
2023-02-11T23:22:39.852Z,102440.56
2023-02-11T23:25:09.976Z,102446.81
2023-02-11T23:27:39.871Z,102444.97
2023-02-11T23:30:14.011Z,102447.06
2023-02-11T23:32:43.670Z,102448.53
2023-02-11T23:35:14.046Z,102436.41
2023-02-11T23:37:42.828Z,102446.22
2023-02-11T23:40:12.549Z,102429.38
2023-02-11T23:42:42.218Z,102444.50
2023-02-11T23:45:11.932Z,102437.63
2023-02-11T23:47:42.664Z,102442.56
2023-02-11T23:50:14.907Z,102445.41
2023-02-11T23:52:44.253Z,102450.53
2023-02-11T23:55:13.164Z,102438.63
2023-02-11T23:57:42.015Z,102440.16
